createdAt,value
2024-03-05T00:01:14.282Z,82
2024-03-05T00:11:14.502Z,82
2024-03-05T00:21:14.650Z,82
2024-03-05T00:31:14.863Z,82
2024-03-05T00:41:15.034Z,82
2024-03-05T00:51:15.227Z,83
2024-03-05T01:01:15.471Z,82
2024-03-05T01:11:15.651Z,82
2024-03-05T01:21:15.825Z,82
2024-03-05T01:41:16.266Z,82
2024-03-05T01:51:16.459Z,82
2024-03-05T02:01:16.673Z,82
2024-03-05T02:11:16.900Z,82
2024-03-05T03:11:18.120Z,84
2024-03-05T04:41:19.821Z,85
2024-03-05T05:21:20.611Z,85
2024-03-05T05:31:20.830Z,85
2024-03-05T07:01:22.692Z,85
2024-03-05T08:21:24.210Z,84
2024-03-05T08:41:24.642Z,83
2024-03-05T09:41:25.790Z,79
2024-03-05T10:01:26.282Z,78
2024-03-05T10:21:26.569Z,78
2024-03-05T10:31:26.874Z,77
2024-03-05T10:51:27.166Z,76
2024-03-05T11:01:27.402Z,76
2024-03-05T11:11:27.600Z,75
2024-03-05T11:21:27.775Z,74
2024-03-05T13:21:30.119Z,76
2024-03-05T14:31:31.584Z,79
2024-03-05T16:01:33.368Z,81
2024-03-05T17:41:35.308Z,83
2024-03-05T18:01:35.769Z,83
2024-03-05T18:21:36.174Z,83
2024-03-05T19:01:36.920Z,84
2024-03-05T19:21:37.293Z,84
2024-03-05T20:01:38.151Z,85
2024-03-05T20:21:38.552Z,85
2024-03-05T20:41:38.893Z,85
2024-03-05T20:51:39.111Z,85
2024-03-05T21:01:39.306Z,85
2024-03-05T21:21:39.675Z,85
2024-03-05T21:41:40.113Z,85
2024-03-05T21:51:40.280Z,85
2024-03-05T22:01:40.558Z,85
2024-03-05T22:21:40.902Z,85
2024-03-05T22:41:41.291Z,85
2024-03-05T22:51:41.489Z,85
2024-03-05T23:01:41.715Z,86
2024-03-05T23:21:42.097Z,85
2024-03-05T23:31:42.366Z,85
2024-03-05T23:41:42.517Z,85
2024-03-05T23:51:42.694Z,85
